Flight Track Log - Related Links

Times and Time Zones

All times are in EDT time to prevent confusion due to time zone crossing. See the UPS1337 flight status page for this flight to view local times or setup timezone preferences in your user account.

Time Position Orientation Groundspeed Altitude Reporting Facility
EDT Latitude Longitude Course Direction KTS MPH feet Rate Location/Type
10:56PM 27.9333 -82.6833 12° North 163 188 1,100  Level Tampa TRACON
10:57PM 28.0000 -82.6667 12° North 221 254 3,000 2,417 Climbing Tampa TRACON
10:58PM 28.0667 -82.6667 360° North 230 265 6,900 2,543 Climbing Tampa TRACON
11:00PM 28.2731 -82.7206 347° North 291 335 11,900 1,791 Climbing Jacksonville Center
11:01PM 28.3794 -82.7558 344° North 358 412 13,200 2,100 Climbing Jacksonville Center
11:02PM 28.4797 -82.8169 332° Northwest 392 451 16,100 2,824 Climbing Jacksonville Center
11:03PM 28.5839 -82.8831 331° Northwest 410 472 18,800 2,579 Climbing Jacksonville Center
11:04PM 28.6903 -82.9469 332° Northwest 416 479 21,300 2,450 Climbing Jacksonville Center
11:05PM 28.8031 -83.0039 336° Northwest 427 491 23,700 2,168 Climbing Jacksonville Center
11:06PM 28.9283 -83.0397 346° North 441 507 25,600 1,950 Climbing Jacksonville Center
11:07PM 29.0578 -83.0778 346° North 461 531 27,600 1,850 Climbing Jacksonville Center
11:08PM 29.1703 -83.1089 346° North 466 536 29,300 1,835 Climbing Jacksonville Center
11:09PM 29.2997 -83.1475 345° North 471 542 31,300 2,000 Climbing Jacksonville Center
11:10PM 29.4269 -83.1833 346° North 471 542 33,300 1,350 Climbing Jacksonville Center
11:11PM 29.5542 -83.2219 345° North 471 542 34,000 99 Climbing Jacksonville Center
11:18PM 30.3315 -83.4290 347° North 459 528 34,000  Level FlightAware ADS-B
11:18PM 30.3980 -83.4469 347° North 458 527 34,000  Level FlightAware ADS-B
11:19PM 30.5511 -83.4883 347° North 450 518 34,000 -42 Level Jacksonville Center
11:20PM 30.6742 -83.5206 347° North 450 518 33,900  Descending Jacksonville Center
11:21PM 30.7950 -83.5528 347° North 450 518 34,000 50 Climbing Jacksonville Center
11:22PM 30.9264 -83.5900 346° North 445 512 34,000  Level Jacksonville Center
11:24PM 31.1408 -83.6483 347° North 468 539 34,000  Level Atlanta Center
11:25PM 31.2639 -83.6842 346° North 463 533 34,000  Level Atlanta Center
11:26PM 31.3831 -83.7153 347° North 447 514 34,000  Level Atlanta Center
11:27PM 31.5042 -83.7492 347° North 447 514 34,000  Level Atlanta Center
11:28PM 31.6253 -83.7803 348° North 447 514 34,000  Level Atlanta Center
11:29PM 31.7528 -83.8167 346° North 450 518 34,000  Level Atlanta Center
11:30PM 31.8633 -83.8333 353° North 464 534 34,000  Level Atlanta Center
11:31PM 31.9864 -83.8553 351° North 458 527 34,000  Level Atlanta Center
11:32PM 32.1117 -83.8769 352° North 453 521 34,000  Level Atlanta Center
11:33PM 32.2350 -83.9014 350° North 448 516 34,000  Level Atlanta Center
11:34PM 32.3603 -83.9233 352° North 448 516 34,000  Level Atlanta Center
11:35PM 32.4939 -83.9478 351° North 443 510 34,000  Level Atlanta Center
11:36PM 32.6169 -83.9697 351° North 443 510 34,000  Level Atlanta Center
11:37PM 32.7400 -83.9919 351° North 448 516 34,000  Level Atlanta Center
11:38PM 32.8653 -84.0142 352° North 448 516 34,000  Level Atlanta Center
11:39PM 32.9864 -84.0389 350° North 448 516 34,000  Level Atlanta Center
11:40PM 33.1097 -84.0611 351° North 443 510 34,000  Level Atlanta Center
11:41PM 33.2306 -84.0861 350° North 450 518 34,000  Level Atlanta Center
11:42PM 33.3558 -84.1083 352° North 445 512 34,000  Level Atlanta Center
11:48PM 34.0901 -84.2443 351° North 441 507 34,000  Level FlightAware ADS-B (KDZJ)
11:48PM 34.1729 -84.2602 351° North 441 507 34,000  Level FlightAware ADS-B (KDZJ)
11:49PM 34.2548 -84.2757 351° North 440 506 34,000  Level FlightAware ADS-B (KDZJ)
11:50PM 34.3367 -84.2913 351° North 440 506 34,000  Level FlightAware ADS-B (KDZJ)
11:50PM 34.4162 -84.3068 351° North 440 506 34,000  Level FlightAware ADS-B (KDZJ)
11:51PM 34.4973 -84.3224 351° North 440 506 34,000  Level FlightAware ADS-B (KDZJ)
11:52PM 34.5761 -84.3376 351° North 440 506 34,000  Level FlightAware ADS-B (KDZJ)
11:52PM 34.6562 -84.3530 351° North 440 506 34,000  Level FlightAware ADS-B (KDZJ)
11:53PM 34.7369 -84.3684 351° North 440 506 34,000  Level FlightAware ADS-B (KDZJ)
11:54PM 34.8163 -84.3837 351° North 439 505 34,000  Level FlightAware ADS-B (KDZJ)
11:54PM 34.8948 -84.3990 351° North 438 504 34,000  Level FlightAware ADS-B (KDZJ)
11:55PM 34.9718 -84.4140 351° North 437 503 34,000  Level FlightAware ADS-B (KDZJ)
11:56PM 35.0586 -84.4309 351° North 437 503 34,000  Level FlightAware ADS-B (KDZJ)
11:56PM 35.1372 -84.4462 351° North 438 504 34,000  Level FlightAware ADS-B (KDZJ)
11:57PM 35.2192 -84.4623 351° North 438 504 34,000  Level FlightAware ADS-B (KDZJ)
11:58PM 35.2979 -84.4777 351° North 439 505 34,000  Level FlightAware ADS-B (KDZJ)
11:58PM 35.3738 -84.4925 351° North 440 506 34,000  Level FlightAware ADS-B (KDZJ)
11:59PM 35.3919 -84.4972 351° North 431 496 34,000 -419 Level Atlanta Center
12:05AM 36.1031 -84.6370 351° North 446 513 31,300 -520 Descending FlightAware ADS-B (KMDQ)
12:06AM 36.1850 -84.6536 351° North 444 511 30,600 -684 Descending Indianapolis Center
12:07AM 36.3078 -84.6778 351° North 446 513 30,000 -443 Descending Indianapolis Center
12:08AM 36.4308 -84.7028 351° North 447 514 29,700 -545 Descending Indianapolis Center
12:09AM 36.5464 -84.7264 351° North 417 480 28,900 -893 Descending Indianapolis Center
12:10AM 36.6575 -84.7489 351° North 408 470 27,900 -1,033 Descending Indianapolis Center
12:11AM 36.7711 -84.7719 351° North 405 466 26,800 -2,016 Descending Indianapolis Center
12:12AM 36.8978 -84.7969 351° North 392 451 23,800 -2,678 Descending Indianapolis Center
12:13AM 37.0022 -84.8186 351° North 382 440 21,400 -2,182 Descending Indianapolis Center
12:14AM 37.1011 -84.8389 351° North 368 423 19,400 -2,016 Descending Indianapolis Center
12:15AM 37.1992 -84.8592 351° North 355 409 17,300 -1,983 Descending Indianapolis Center
12:16AM 37.2983 -84.8794 351° North 357 411 15,400 -1,835 Descending Indianapolis Center
12:17AM 37.3975 -84.8997 351° North 358 412 13,600 -1,623 Descending Indianapolis Center
12:18AM 37.4975 -84.9203 351° North 356 410 12,100 -1,388 Descending Indianapolis Center
12:19AM 37.5875 -84.9389 351° North 323 372 10,800 -1,388 Descending Indianapolis Center
12:20AM 37.6642 -84.9664 344° North 280 322 9,300 -1,377 Descending Indianapolis Center
12:21AM 37.7156 -85.0372 313° West 277 319 8,000 -1,190 Descending Indianapolis Center
12:22AM 37.7583 -85.1158 305° West 274 315 6,900 -1,339 Descending Indianapolis Center
12:23AM 37.7922 -85.2008 297° West 274 315 5,300 -1,426 Descending Indianapolis Center
12:24AM 37.8286 -85.2833 299° West 273 314 4,000 -645 Descending Indianapolis Center
12:25AM 37.8658 -85.3783 296° West 272 313 4,000 -314 Level Indianapolis Center
12:27AM 37.9333 -85.5667 294° West 247 284 3,000 -226 Descending Louisville TRACON
12:29AM 38.0333 -85.6833 339° North 190 219 3,000 -379 Level Louisville TRACON
12:32AM 38.1333 -85.7167 322° Northwest 134 154 1,200 -720 Descending Louisville TRACON
12:34AM 38.1667 -85.7333 208° Southwest  Level FlightAware Approximate

Login

Don't have an account? Register now (free) for customized features, flight alerts, and more!